sensor_id;sensor_type;location;lat;lon;timestamp;temperature;humidity
12911;DHT22;6523;49.758;6.120;2023-08-08T00:01:41;10.70;99.90
12911;DHT22;6523;49.758;6.120;2023-08-08T00:04:10;10.60;99.90
12911;DHT22;6523;49.758;6.120;2023-08-08T00:06:36;10.40;99.90
12911;DHT22;6523;49.758;6.120;2023-08-08T00:09:02;10.60;99.90
12911;DHT22;6523;49.758;6.120;2023-08-08T00:11:29;10.40;99.90
12911;DHT22;6523;49.758;6.120;2023-08-08T00:13:55;10.30;99.90
12911;DHT22;6523;49.758;6.120;2023-08-08T00:16:21;10.50;99.90
12911;DHT22;6523;49.758;6.120;2023-08-08T00:18:47;10.50;99.90
12911;DHT22;6523;49.758;6.120;2023-08-08T00:21:15;10.50;99.90
12911;DHT22;6523;49.758;6.120;2023-08-08T00:23:40;10.50;99.90
12911;DHT22;6523;49.758;6.120;2023-08-08T00:26:06;10.40;99.90
12911;DHT22;6523;49.758;6.120;2023-08-08T00:28:31;10.50;99.90
12911;DHT22;6523;49.758;6.120;2023-08-08T00:30:57;10.50;99.90
12911;DHT22;6523;49.758;6.120;2023-08-08T00:33:22;10.20;99.90
12911;DHT22;6523;49.758;6.120;2023-08-08T00:35:48;10.10;99.90
12911;DHT22;6523;49.758;6.120;2023-08-08T00:38:13;10.20;99.90
12911;DHT22;6523;49.758;6.120;2023-08-08T00:40:39;10.20;99.90
12911;DHT22;6523;49.758;6.120;2023-08-08T00:43:05;10.20;99.90
12911;DHT22;6523;49.758;6.120;2023-08-08T00:45:30;10.20;99.90
12911;DHT22;6523;49.758;6.120;2023-08-08T00:47:56;10.30;99.90
12911;DHT22;6523;49.758;6.120;2023-08-08T00:50:22;10.40;99.90
12911;DHT22;6523;49.758;6.120;2023-08-08T00:52:49;10.20;99.90
12911;DHT22;6523;49.758;6.120;2023-08-08T00:55:15;10.00;99.90
12911;DHT22;6523;49.758;6.120;2023-08-08T00:57:41;9.90;99.90
12911;DHT22;6523;49.758;6.120;2023-08-08T01:00:07;10.00;99.90
12911;DHT22;6523;49.758;6.120;2023-08-08T01:02:35;10.00;99.90
12911;DHT22;6523;49.758;6.120;2023-08-08T01:05:02;9.70;99.90
12911;DHT22;6523;49.758;6.120;2023-08-08T01:10:15;9.70;99.90
12911;DHT22;6523;49.758;6.120;2023-08-08T01:12:50;9.60;99.90
12911;DHT22;6523;49.758;6.120;2023-08-08T01:15:17;9.80;99.90
12911;DHT22;6523;49.758;6.120;2023-08-08T01:17:44;9.70;99.90
12911;DHT22;6523;49.758;6.120;2023-08-08T01:20:11;9.60;99.90
12911;DHT22;6523;49.758;6.120;2023-08-08T01:25:37;9.60;99.90
12911;DHT22;6523;49.758;6.120;2023-08-08T01:28:03;9.50;99.90
12911;DHT22;6523;49.758;6.120;2023-08-08T01:30:30;9.40;99.90
12911;DHT22;6523;49.758;6.120;2023-08-08T01:32:56;9.40;99.90
12911;DHT22;6523;49.758;6.120;2023-08-08T01:35:22;9.50;99.90
12911;DHT22;6523;49.758;6.120;2023-08-08T01:37:53;9.40;99.90
12911;DHT22;6523;49.758;6.120;2023-08-08T01:40:19;9.40;99.90
12911;DHT22;6523;49.758;6.120;2023-08-08T01:42:47;9.40;99.90
12911;DHT22;6523;49.758;6.120;2023-08-08T01:45:14;9.60;99.90
12911;DHT22;6523;49.758;6.120;2023-08-08T01:47:40;9.40;99.90
12911;DHT22;6523;49.758;6.120;2023-08-08T01:50:07;9.20;99.90
12911;DHT22;6523;49.758;6.120;2023-08-08T01:52:33;9.40;99.90
12911;DHT22;6523;49.758;6.120;2023-08-08T01:54:58;9.40;99.90
12911;DHT22;6523;49.758;6.120;2023-08-08T01:57:24;9.50;99.90
12911;DHT22;6523;49.758;6.120;2023-08-08T01:59:49;9.40;99.90
12911;DHT22;6523;49.758;6.120;2023-08-08T02:02:15;9.30;99.90
12911;DHT22;6523;49.758;6.120;2023-08-08T02:04:42;9.30;99.90
12911;DHT22;6523;49.758;6.120;2023-08-08T02:07:08;9.20;99.90
12911;DHT22;6523;49.758;6.120;2023-08-08T02:09:33;9.40;99.90
12911;DHT22;6523;49.758;6.120;2023-08-08T02:11:59;9.40;99.90
12911;DHT22;6523;49.758;6.120;2023-08-08T02:14:25;9.30;99.90
12911;DHT22;6523;49.758;6.120;2023-08-08T02:16:50;9.30;99.90
12911;DHT22;6523;49.758;6.120;2023-08-08T02:19:16;9.40;99.90
12911;DHT22;6523;49.758;6.120;2023-08-08T02:21:41;9.40;99.90
12911;DHT22;6523;49.758;6.120;2023-08-08T02:24:07;9.40;99.90
12911;DHT22;6523;49.758;6.120;2023-08-08T02:26:32;9.50;99.90
12911;DHT22;6523;49.758;6.120;2023-08-08T02:28:58;9.40;99.90
12911;DHT22;6523;49.758;6.120;2023-08-08T02:31:24;9.30;99.90
12911;DHT22;6523;49.758;6.120;2023-08-08T02:33:50;9.10;99.90
12911;DHT22;6523;49.758;6.120;2023-08-08T02:36:17;8.90;99.90
12911;DHT22;6523;49.758;6.120;2023-08-08T02:38:43;8.70;99.90
12911;DHT22;6523;49.758;6.120;2023-08-08T02:41:08;8.70;99.90
12911;DHT22;6523;49.758;6.120;2023-08-08T02:43:34;8.80;99.90
12911;DHT22;6523;49.758;6.120;2023-08-08T02:45:59;8.60;99.90
12911;DHT22;6523;49.758;6.120;2023-08-08T02:48:25;8.60;99.90
12911;DHT22;6523;49.758;6.120;2023-08-08T02:50:50;8.60;99.90
12911;DHT22;6523;49.758;6.120;2023-08-08T02:53:16;8.80;99.90
12911;DHT22;6523;49.758;6.120;2023-08-08T02:55:41;8.80;99.90
12911;DHT22;6523;49.758;6.120;2023-08-08T02:58:07;8.60;99.90
12911;DHT22;6523;49.758;6.120;2023-08-08T03:00:32;8.70;99.90
12911;DHT22;6523;49.758;6.120;2023-08-08T03:02:58;8.70;99.90
12911;DHT22;6523;49.758;6.120;2023-08-08T03:05:23;8.60;99.90
12911;DHT22;6523;49.758;6.120;2023-08-08T03:07:49;8.70;99.90
12911;DHT22;6523;49.758;6.120;2023-08-08T03:10:14;8.90;99.90
12911;DHT22;6523;49.758;6.120;2023-08-08T03:12:40;8.90;99.90
12911;DHT22;6523;49.758;6.120;2023-08-08T03:15:07;8.80;99.90
12911;DHT22;6523;49.758;6.120;2023-08-08T03:17:33;8.80;99.90
12911;DHT22;6523;49.758;6.120;2023-08-08T03:19:58;8.80;99.90
12911;DHT22;6523;49.758;6.120;2023-08-08T03:22:24;8.80;99.90
12911;DHT22;6523;49.758;6.120;2023-08-08T03:24:49;8.90;99.90
12911;DHT22;6523;49.758;6.120;2023-08-08T03:27:15;8.90;99.90
12911;DHT22;6523;49.758;6.120;2023-08-08T03:29:40;8.90;99.90
12911;DHT22;6523;49.758;6.120;2023-08-08T03:32:06;9.10;99.90
12911;DHT22;6523;49.758;6.120;2023-08-08T03:34:32;8.90;99.90
12911;DHT22;6523;49.758;6.120;2023-08-08T03:36:58;8.80;99.90
12911;DHT22;6523;49.758;6.120;2023-08-08T03:39:24;8.70;99.90
12911;DHT22;6523;49.758;6.120;2023-08-08T03:41:49;8.70;99.90
12911;DHT22;6523;49.758;6.120;2023-08-08T03:44:15;8.80;99.90
12911;DHT22;6523;49.758;6.120;2023-08-08T03:46:40;8.90;99.90
12911;DHT22;6523;49.758;6.120;2023-08-08T03:49:06;8.80;99.90
12911;DHT22;6523;49.758;6.120;2023-08-08T03:51:31;8.70;99.90
12911;DHT22;6523;49.758;6.120;2023-08-08T03:53:57;8.70;99.90
12911;DHT22;6523;49.758;6.120;2023-08-08T03:56:23;8.80;99.90
12911;DHT22;6523;49.758;6.120;2023-08-08T03:58:48;8.90;99.90
12911;DHT22;6523;49.758;6.120;2023-08-08T04:01:14;8.90;99.90
12911;DHT22;6523;49.758;6.120;2023-08-08T04:03:39;8.80;99.90
12911;DHT22;6523;49.758;6.120;2023-08-08T04:06:05;8.90;99.90
12911;DHT22;6523;49.758;6.120;2023-08-08T04:08:30;9.10;99.90
12911;DHT22;6523;49.758;6.120;2023-08-08T04:10:56;9.00;99.90
12911;DHT22;6523;49.758;6.120;2023-08-08T04:13:21;8.90;99.90
12911;DHT22;6523;49.758;6.120;2023-08-08T04:15:47;9.00;99.90
12911;DHT22;6523;49.758;6.120;2023-08-08T04:18:13;8.90;99.90
12911;DHT22;6523;49.758;6.120;2023-08-08T04:20:38;8.80;99.90
12911;DHT22;6523;49.758;6.120;2023-08-08T04:23:05;8.90;99.90
12911;DHT22;6523;49.758;6.120;2023-08-08T04:25:30;9.00;99.90
12911;DHT22;6523;49.758;6.120;2023-08-08T04:27:56;9.00;99.90
12911;DHT22;6523;49.758;6.120;2023-08-08T04:30:21;9.10;99.90
12911;DHT22;6523;49.758;6.120;2023-08-08T04:32:47;9.10;99.90
12911;DHT22;6523;49.758;6.120;2023-08-08T04:35:12;9.10;99.90
12911;DHT22;6523;49.758;6.120;2023-08-08T04:37:38;9.00;99.90
12911;DHT22;6523;49.758;6.120;2023-08-08T04:40:04;9.00;99.90
12911;DHT22;6523;49.758;6.120;2023-08-08T04:42:30;9.10;99.90
12911;DHT22;6523;49.758;6.120;2023-08-08T04:44:55;9.10;99.90
12911;DHT22;6523;49.758;6.120;2023-08-08T04:47:21;9.10;99.90
12911;DHT22;6523;49.758;6.120;2023-08-08T04:49:46;9.30;99.90
12911;DHT22;6523;49.758;6.120;2023-08-08T04:52:12;9.10;99.90
12911;DHT22;6523;49.758;6.120;2023-08-08T04:54:37;9.20;99.90
12911;DHT22;6523;49.758;6.120;2023-08-08T04:57:03;9.30;99.90
12911;DHT22;6523;49.758;6.120;2023-08-08T04:59:29;9.30;99.90
12911;DHT22;6523;49.758;6.120;2023-08-08T05:01:54;9.30;99.90
12911;DHT22;6523;49.758;6.120;2023-08-08T05:04:20;9.40;99.90
12911;DHT22;6523;49.758;6.120;2023-08-08T05:06:45;9.50;99.90
12911;DHT22;6523;49.758;6.120;2023-08-08T05:09:11;9.50;99.90
12911;DHT22;6523;49.758;6.120;2023-08-08T05:11:37;9.60;99.90
12911;DHT22;6523;49.758;6.120;2023-08-08T05:14:02;9.60;99.90
12911;DHT22;6523;49.758;6.120;2023-08-08T05:16:28;9.70;99.90
12911;DHT22;6523;49.758;6.120;2023-08-08T05:18:54;9.90;99.90
12911;DHT22;6523;49.758;6.120;2023-08-08T05:21:21;10.00;99.90
12911;DHT22;6523;49.758;6.120;2023-08-08T05:23:46;10.20;99.90
12911;DHT22;6523;49.758;6.120;2023-08-08T05:26:12;10.20;99.90
12911;DHT22;6523;49.758;6.120;2023-08-08T05:28:37;10.20;99.90
12911;DHT22;6523;49.758;6.120;2023-08-08T05:31:03;10.30;99.90
12911;DHT22;6523;49.758;6.120;2023-08-08T05:33:28;10.40;99.90
12911;DHT22;6523;49.758;6.120;2023-08-08T05:35:54;10.40;99.90
12911;DHT22;6523;49.758;6.120;2023-08-08T05:38:19;10.50;99.90
12911;DHT22;6523;49.758;6.120;2023-08-08T05:40:45;10.50;99.90
12911;DHT22;6523;49.758;6.120;2023-08-08T05:43:10;10.50;99.90
12911;DHT22;6523;49.758;6.120;2023-08-08T05:45:42;10.60;99.90
12911;DHT22;6523;49.758;6.120;2023-08-08T05:48:07;10.60;99.90
12911;DHT22;6523;49.758;6.120;2023-08-08T05:50:37;10.70;99.90
12911;DHT22;6523;49.758;6.120;2023-08-08T05:53:03;10.80;99.90
12911;DHT22;6523;49.758;6.120;2023-08-08T05:55:28;10.90;99.90
12911;DHT22;6523;49.758;6.120;2023-08-08T05:57:54;10.90;99.90
12911;DHT22;6523;49.758;6.120;2023-08-08T06:00:20;11.00;99.90
12911;DHT22;6523;49.758;6.120;2023-08-08T06:02:45;11.00;99.90
12911;DHT22;6523;49.758;6.120;2023-08-08T06:05:11;11.10;99.90
12911;DHT22;6523;49.758;6.120;2023-08-08T06:07:37;11.10;99.90
12911;DHT22;6523;49.758;6.120;2023-08-08T06:10:04;11.20;99.90
12911;DHT22;6523;49.758;6.120;2023-08-08T06:12:29;11.20;99.90
12911;DHT22;6523;49.758;6.120;2023-08-08T06:14:55;11.20;99.90
12911;DHT22;6523;49.758;6.120;2023-08-08T06:17:20;11.20;99.90
12911;DHT22;6523;49.758;6.120;2023-08-08T06:19:46;11.30;99.90
12911;DHT22;6523;49.758;6.120;2023-08-08T06:22:12;11.40;99.90
12911;DHT22;6523;49.758;6.120;2023-08-08T06:24:37;11.40;99.90
12911;DHT22;6523;49.758;6.120;2023-08-08T06:27:04;11.50;99.90
12911;DHT22;6523;49.758;6.120;2023-08-08T06:29:30;11.50;99.90
12911;DHT22;6523;49.758;6.120;2023-08-08T06:31:56;11.50;99.90
12911;DHT22;6523;49.758;6.120;2023-08-08T06:34:21;11.60;99.90
12911;DHT22;6523;49.758;6.120;2023-08-08T06:36:47;11.70;99.90
12911;DHT22;6523;49.758;6.120;2023-08-08T06:39:12;11.80;99.90
12911;DHT22;6523;49.758;6.120;2023-08-08T06:41:38;11.90;99.90
12911;DHT22;6523;49.758;6.120;2023-08-08T06:44:04;12.10;99.90
12911;DHT22;6523;49.758;6.120;2023-08-08T06:46:30;12.30;99.90
12911;DHT22;6523;49.758;6.120;2023-08-08T06:48:55;12.50;99.90
12911;DHT22;6523;49.758;6.120;2023-08-08T06:51:25;12.70;99.90
12911;DHT22;6523;49.758;6.120;2023-08-08T06:53:51;12.80;99.90
12911;DHT22;6523;49.758;6.120;2023-08-08T06:56:16;12.90;99.90
12911;DHT22;6523;49.758;6.120;2023-08-08T06:58:42;12.90;99.90
12911;DHT22;6523;49.758;6.120;2023-08-08T07:01:08;12.80;99.90
12911;DHT22;6523;49.758;6.120;2023-08-08T07:03:35;12.80;99.90
12911;DHT22;6523;49.758;6.120;2023-08-08T07:06:00;13.00;99.90
12911;DHT22;6523;49.758;6.120;2023-08-08T07:08:26;13.00;99.90
12911;DHT22;6523;49.758;6.120;2023-08-08T07:10:51;13.20;99.90
12911;DHT22;6523;49.758;6.120;2023-08-08T07:13:17;13.10;99.90
12911;DHT22;6523;49.758;6.120;2023-08-08T07:15:43;13.10;99.90
12911;DHT22;6523;49.758;6.120;2023-08-08T07:18:08;13.10;99.90
12911;DHT22;6523;49.758;6.120;2023-08-08T07:20:34;13.00;99.90
12911;DHT22;6523;49.758;6.120;2023-08-08T07:22:59;13.00;99.90
12911;DHT22;6523;49.758;6.120;2023-08-08T07:25:26;12.90;99.90
12911;DHT22;6523;49.758;6.120;2023-08-08T07:27:52;13.00;99.90
12911;DHT22;6523;49.758;6.120;2023-08-08T07:30:18;13.30;99.90
12911;DHT22;6523;49.758;6.120;2023-08-08T07:32:43;13.50;99.90
12911;DHT22;6523;49.758;6.120;2023-08-08T07:35:09;13.60;99.90
12911;DHT22;6523;49.758;6.120;2023-08-08T07:37:36;13.30;99.90
12911;DHT22;6523;49.758;6.120;2023-08-08T07:40:02;13.30;99.90
12911;DHT22;6523;49.758;6.120;2023-08-08T07:42:29;13.50;99.90
12911;DHT22;6523;49.758;6.120;2023-08-08T07:44:54;13.70;99.90
12911;DHT22;6523;49.758;6.120;2023-08-08T07:47:20;13.80;99.90
12911;DHT22;6523;49.758;6.120;2023-08-08T07:49:46;13.90;99.90
12911;DHT22;6523;49.758;6.120;2023-08-08T07:52:11;14.00;99.90
12911;DHT22;6523;49.758;6.120;2023-08-08T07:54:37;14.30;99.90
12911;DHT22;6523;49.758;6.120;2023-08-08T07:57:02;14.20;99.90
12911;DHT22;6523;49.758;6.120;2023-08-08T07:59:29;14.20;99.90
12911;DHT22;6523;49.758;6.120;2023-08-08T08:01:54;14.10;99.90
12911;DHT22;6523;49.758;6.120;2023-08-08T08:04:20;14.20;99.90
12911;DHT22;6523;49.758;6.120;2023-08-08T08:06:45;14.30;99.90
12911;DHT22;6523;49.758;6.120;2023-08-08T08:09:11;14.40;99.90
12911;DHT22;6523;49.758;6.120;2023-08-08T08:11:37;14.10;99.90
12911;DHT22;6523;49.758;6.120;2023-08-08T08:14:02;14.20;99.90
12911;DHT22;6523;49.758;6.120;2023-08-08T08:16:28;14.30;99.90
12911;DHT22;6523;49.758;6.120;2023-08-08T08:18:54;14.40;99.90
12911;DHT22;6523;49.758;6.120;2023-08-08T08:21:19;14.70;99.90
12911;DHT22;6523;49.758;6.120;2023-08-08T08:23:46;14.90;99.90
12911;DHT22;6523;49.758;6.120;2023-08-08T08:26:11;15.00;99.90
12911;DHT22;6523;49.758;6.120;2023-08-08T08:28:37;15.10;99.90
12911;DHT22;6523;49.758;6.120;2023-08-08T08:31:05;15.00;99.90
12911;DHT22;6523;49.758;6.120;2023-08-08T08:33:31;15.10;99.90
12911;DHT22;6523;49.758;6.120;2023-08-08T08:35:57;15.00;99.90
12911;DHT22;6523;49.758;6.120;2023-08-08T08:38:22;15.20;99.90
12911;DHT22;6523;49.758;6.120;2023-08-08T08:40:48;15.50;99.90
12911;DHT22;6523;49.758;6.120;2023-08-08T08:43:15;15.70;99.90
12911;DHT22;6523;49.758;6.120;2023-08-08T08:45:43;16.10;99.90
12911;DHT22;6523;49.758;6.120;2023-08-08T08:48:12;16.10;99.90
12911;DHT22;6523;49.758;6.120;2023-08-08T08:50:39;16.10;99.90
12911;DHT22;6523;49.758;6.120;2023-08-08T08:53:05;16.30;99.90
12911;DHT22;6523;49.758;6.120;2023-08-08T08:55:32;15.80;99.90
12911;DHT22;6523;49.758;6.120;2023-08-08T08:57:57;15.80;99.90
12911;DHT22;6523;49.758;6.120;2023-08-08T09:00:23;16.00;99.90
12911;DHT22;6523;49.758;6.120;2023-08-08T09:02:51;16.10;99.90
12911;DHT22;6523;49.758;6.120;2023-08-08T09:05:18;16.50;99.90
12911;DHT22;6523;49.758;6.120;2023-08-08T09:07:47;16.70;99.90
12911;DHT22;6523;49.758;6.120;2023-08-08T09:10:15;16.80;99.90
12911;DHT22;6523;49.758;6.120;2023-08-08T09:12:41;17.20;99.90
12911;DHT22;6523;49.758;6.120;2023-08-08T09:15:07;17.40;99.90
12911;DHT22;6523;49.758;6.120;2023-08-08T09:17:32;17.00;99.90
12911;DHT22;6523;49.758;6.120;2023-08-08T09:19:58;16.80;99.90
12911;DHT22;6523;49.758;6.120;2023-08-08T09:22:24;16.60;99.90
12911;DHT22;6523;49.758;6.120;2023-08-08T09:24:52;16.80;99.90
12911;DHT22;6523;49.758;6.120;2023-08-08T09:27:17;16.80;99.90
12911;DHT22;6523;49.758;6.120;2023-08-08T09:29:43;16.90;99.90
12911;DHT22;6523;49.758;6.120;2023-08-08T09:32:08;17.20;99.90
12911;DHT22;6523;49.758;6.120;2023-08-08T09:34:35;17.50;99.90
12911;DHT22;6523;49.758;6.120;2023-08-08T09:37:01;17.40;99.90
12911;DHT22;6523;49.758;6.120;2023-08-08T09:39:28;17.60;99.90
12911;DHT22;6523;49.758;6.120;2023-08-08T09:41:55;17.90;99.90
12911;DHT22;6523;49.758;6.120;2023-08-08T09:44:26;17.60;99.90
12911;DHT22;6523;49.758;6.120;2023-08-08T09:46:53;17.50;99.90
12911;DHT22;6523;49.758;6.120;2023-08-08T09:49:19;18.10;99.90
12911;DHT22;6523;49.758;6.120;2023-08-08T09:51:47;18.20;99.90
12911;DHT22;6523;49.758;6.120;2023-08-08T09:54:14;18.50;99.90
12911;DHT22;6523;49.758;6.120;2023-08-08T09:56:39;18.60;99.90
12911;DHT22;6523;49.758;6.120;2023-08-08T09:59:06;18.50;99.90
12911;DHT22;6523;49.758;6.120;2023-08-08T10:01:33;18.60;99.90
12911;DHT22;6523;49.758;6.120;2023-08-08T10:03:59;18.70;99.90
12911;DHT22;6523;49.758;6.120;2023-08-08T10:06:26;18.80;99.90
12911;DHT22;6523;49.758;6.120;2023-08-08T10:08:51;19.10;99.90
12911;DHT22;6523;49.758;6.120;2023-08-08T10:11:17;19.50;99.90
12911;DHT22;6523;49.758;6.120;2023-08-08T10:13:50;19.20;99.90
12911;DHT22;6523;49.758;6.120;2023-08-08T10:16:17;19.10;99.90
12911;DHT22;6523;49.758;6.120;2023-08-08T10:18:44;18.80;99.90
12911;DHT22;6523;49.758;6.120;2023-08-08T10:21:11;18.90;99.90
12911;DHT22;6523;49.758;6.120;2023-08-08T10:23:39;18.30;99.90
12911;DHT22;6523;49.758;6.120;2023-08-08T10:26:16;18.30;99.90
12911;DHT22;6523;49.758;6.120;2023-08-08T10:28:53;18.00;99.90
12911;DHT22;6523;49.758;6.120;2023-08-08T10:31:20;18.20;99.90
12911;DHT22;6523;49.758;6.120;2023-08-08T10:33:46;18.70;99.90
12911;DHT22;6523;49.758;6.120;2023-08-08T10:36:12;19.10;99.90
12911;DHT22;6523;49.758;6.120;2023-08-08T10:38:46;19.10;99.90
12911;DHT22;6523;49.758;6.120;2023-08-08T10:41:26;18.70;99.90
12911;DHT22;6523;49.758;6.120;2023-08-08T10:43:52;18.30;99.90
12911;DHT22;6523;49.758;6.120;2023-08-08T10:46:27;17.80;99.90
12911;DHT22;6523;49.758;6.120;2023-08-08T10:48:54;17.80;99.90
12911;DHT22;6523;49.758;6.120;2023-08-08T10:51:21;17.90;99.90
12911;DHT22;6523;49.758;6.120;2023-08-08T10:53:51;18.30;99.90
12911;DHT22;6523;49.758;6.120;2023-08-08T10:56:18;18.20;99.90
12911;DHT22;6523;49.758;6.120;2023-08-08T10:58:49;18.00;99.90
12911;DHT22;6523;49.758;6.120;2023-08-08T11:01:14;17.90;99.90
12911;DHT22;6523;49.758;6.120;2023-08-08T11:03:42;18.00;99.90
12911;DHT22;6523;49.758;6.120;2023-08-08T11:06:09;17.90;99.90
12911;DHT22;6523;49.758;6.120;2023-08-08T11:08:36;17.80;99.90
12911;DHT22;6523;49.758;6.120;2023-08-08T11:11:04;17.70;99.90
12911;DHT22;6523;49.758;6.120;2023-08-08T11:13:31;17.60;99.90
12911;DHT22;6523;49.758;6.120;2023-08-08T11:15:57;17.40;99.90
12911;DHT22;6523;49.758;6.120;2023-08-08T11:18:22;17.40;99.90
12911;DHT22;6523;49.758;6.120;2023-08-08T11:20:49;17.50;99.90
12911;DHT22;6523;49.758;6.120;2023-08-08T11:23:15;18.00;99.90
12911;DHT22;6523;49.758;6.120;2023-08-08T11:25:43;18.80;99.90
12911;DHT22;6523;49.758;6.120;2023-08-08T11:28:09;18.90;99.90
12911;DHT22;6523;49.758;6.120;2023-08-08T11:30:38;19.20;99.90
12911;DHT22;6523;49.758;6.120;2023-08-08T11:33:05;18.90;99.90
12911;DHT22;6523;49.758;6.120;2023-08-08T11:35:31;18.50;99.90
12911;DHT22;6523;49.758;6.120;2023-08-08T11:37:59;18.30;99.90
12911;DHT22;6523;49.758;6.120;2023-08-08T11:40:27;18.00;99.90
12911;DHT22;6523;49.758;6.120;2023-08-08T11:42:54;17.80;99.90
12911;DHT22;6523;49.758;6.120;2023-08-08T11:45:21;17.50;99.90
12911;DHT22;6523;49.758;6.120;2023-08-08T11:47:51;17.40;99.90
12911;DHT22;6523;49.758;6.120;2023-08-08T11:50:20;17.30;99.90
12911;DHT22;6523;49.758;6.120;2023-08-08T11:52:46;17.20;99.90
12911;DHT22;6523;49.758;6.120;2023-08-08T11:55:12;17.10;99.90
12911;DHT22;6523;49.758;6.120;2023-08-08T11:57:39;17.10;99.90
12911;DHT22;6523;49.758;6.120;2023-08-08T12:00:07;16.90;99.90
12911;DHT22;6523;49.758;6.120;2023-08-08T12:02:34;16.80;99.90
12911;DHT22;6523;49.758;6.120;2023-08-08T12:05:26;16.40;99.90
12911;DHT22;6523;49.758;6.120;2023-08-08T12:07:52;16.20;99.90
12911;DHT22;6523;49.758;6.120;2023-08-08T12:10:20;16.20;99.90
12911;DHT22;6523;49.758;6.120;2023-08-08T12:12:46;16.40;99.90
12911;DHT22;6523;49.758;6.120;2023-08-08T12:15:12;17.20;99.90
12911;DHT22;6523;49.758;6.120;2023-08-08T12:17:39;17.20;99.90
12911;DHT22;6523;49.758;6.120;2023-08-08T12:20:06;16.80;99.90
12911;DHT22;6523;49.758;6.120;2023-08-08T12:22:33;16.80;99.90
12911;DHT22;6523;49.758;6.120;2023-08-08T12:24:58;16.90;99.90
12911;DHT22;6523;49.758;6.120;2023-08-08T12:27:24;16.90;99.90
12911;DHT22;6523;49.758;6.120;2023-08-08T12:29:49;16.90;99.90
12911;DHT22;6523;49.758;6.120;2023-08-08T12:32:15;16.70;99.90
12911;DHT22;6523;49.758;6.120;2023-08-08T12:34:40;16.60;99.90
12911;DHT22;6523;49.758;6.120;2023-08-08T12:37:06;16.70;99.90
12911;DHT22;6523;49.758;6.120;2023-08-08T12:39:32;16.80;99.90
12911;DHT22;6523;49.758;6.120;2023-08-08T12:41:57;16.90;99.90
12911;DHT22;6523;49.758;6.120;2023-08-08T12:44:23;17.00;99.90
12911;DHT22;6523;49.758;6.120;2023-08-08T12:46:49;17.00;99.90
12911;DHT22;6523;49.758;6.120;2023-08-08T12:49:14;16.90;99.90
12911;DHT22;6523;49.758;6.120;2023-08-08T12:51:40;16.70;99.90
12911;DHT22;6523;49.758;6.120;2023-08-08T12:54:06;16.80;99.90
12911;DHT22;6523;49.758;6.120;2023-08-08T12:56:31;16.80;99.90
12911;DHT22;6523;49.758;6.120;2023-08-08T12:58:57;16.80;99.90
12911;DHT22;6523;49.758;6.120;2023-08-08T13:01:22;16.80;99.90
12911;DHT22;6523;49.758;6.120;2023-08-08T13:03:50;16.90;99.90
12911;DHT22;6523;49.758;6.120;2023-08-08T13:06:16;17.30;99.90
12911;DHT22;6523;49.758;6.120;2023-08-08T13:08:41;18.50;99.90
12911;DHT22;6523;49.758;6.120;2023-08-08T13:11:07;19.30;99.90
12911;DHT22;6523;49.758;6.120;2023-08-08T13:13:33;19.70;99.90
12911;DHT22;6523;49.758;6.120;2023-08-08T13:15:58;20.60;99.90
12911;DHT22;6523;49.758;6.120;2023-08-08T13:18:24;19.80;99.90
12911;DHT22;6523;49.758;6.120;2023-08-08T13:20:49;18.60;99.90
12911;DHT22;6523;49.758;6.120;2023-08-08T13:23:15;18.50;99.90
12911;DHT22;6523;49.758;6.120;2023-08-08T13:25:40;19.50;99.90
12911;DHT22;6523;49.758;6.120;2023-08-08T13:28:06;19.70;99.90
12911;DHT22;6523;49.758;6.120;2023-08-08T13:30:32;18.90;99.90
12911;DHT22;6523;49.758;6.120;2023-08-08T13:32:59;18.40;99.90
12911;DHT22;6523;49.758;6.120;2023-08-08T13:35:25;18.10;99.90
12911;DHT22;6523;49.758;6.120;2023-08-08T13:37:50;18.20;99.90
12911;DHT22;6523;49.758;6.120;2023-08-08T13:40:18;18.80;99.90
12911;DHT22;6523;49.758;6.120;2023-08-08T13:42:43;19.00;99.90
12911;DHT22;6523;49.758;6.120;2023-08-08T13:45:13;18.80;99.90
12911;DHT22;6523;49.758;6.120;2023-08-08T13:47:39;18.70;99.90
12911;DHT22;6523;49.758;6.120;2023-08-08T13:50:05;18.50;99.90
12911;DHT22;6523;49.758;6.120;2023-08-08T13:52:31;18.50;99.90
12911;DHT22;6523;49.758;6.120;2023-08-08T13:54:58;18.50;99.90
12911;DHT22;6523;49.758;6.120;2023-08-08T13:57:23;18.40;99.90
12911;DHT22;6523;49.758;6.120;2023-08-08T13:59:49;18.30;99.90
12911;DHT22;6523;49.758;6.120;2023-08-08T14:02:15;18.20;99.90
12911;DHT22;6523;49.758;6.120;2023-08-08T14:04:46;18.20;99.90
12911;DHT22;6523;49.758;6.120;2023-08-08T14:07:11;18.20;99.90
12911;DHT22;6523;49.758;6.120;2023-08-08T14:09:37;18.50;99.90
12911;DHT22;6523;49.758;6.120;2023-08-08T14:12:03;19.10;99.90
12911;DHT22;6523;49.758;6.120;2023-08-08T14:14:29;19.10;99.90
12911;DHT22;6523;49.758;6.120;2023-08-08T14:16:54;19.40;99.90
12911;DHT22;6523;49.758;6.120;2023-08-08T14:19:20;19.30;99.90
12911;DHT22;6523;49.758;6.120;2023-08-08T14:21:45;19.20;99.90
12911;DHT22;6523;49.758;6.120;2023-08-08T14:24:11;18.70;99.90
12911;DHT22;6523;49.758;6.120;2023-08-08T14:26:37;18.60;99.90
12911;DHT22;6523;49.758;6.120;2023-08-08T14:29:02;18.40;99.90
12911;DHT22;6523;49.758;6.120;2023-08-08T14:31:28;18.20;99.90
12911;DHT22;6523;49.758;6.120;2023-08-08T14:33:54;18.10;99.90
12911;DHT22;6523;49.758;6.120;2023-08-08T14:36:19;17.90;99.90
12911;DHT22;6523;49.758;6.120;2023-08-08T14:38:45;17.90;99.90
12911;DHT22;6523;49.758;6.120;2023-08-08T14:41:11;18.10;99.90
12911;DHT22;6523;49.758;6.120;2023-08-08T14:43:36;18.40;99.90
12911;DHT22;6523;49.758;6.120;2023-08-08T14:46:02;18.90;99.90
12911;DHT22;6523;49.758;6.120;2023-08-08T14:48:27;19.30;99.90
12911;DHT22;6523;49.758;6.120;2023-08-08T14:50:53;19.50;99.90
12911;DHT22;6523;49.758;6.120;2023-08-08T14:53:19;19.90;99.90
12911;DHT22;6523;49.758;6.120;2023-08-08T14:55:45;19.90;99.90
12911;DHT22;6523;49.758;6.120;2023-08-08T14:58:10;19.80;99.90
12911;DHT22;6523;49.758;6.120;2023-08-08T15:00:36;19.50;99.90
12911;DHT22;6523;49.758;6.120;2023-08-08T15:03:02;19.20;99.90
12911;DHT22;6523;49.758;6.120;2023-08-08T15:05:27;18.90;99.90
12911;DHT22;6523;49.758;6.120;2023-08-08T15:07:53;18.70;99.90
12911;DHT22;6523;49.758;6.120;2023-08-08T15:10:18;18.50;99.90
12911;DHT22;6523;49.758;6.120;2023-08-08T15:12:44;18.30;99.90
12911;DHT22;6523;49.758;6.120;2023-08-08T15:15:11;18.20;99.90
12911;DHT22;6523;49.758;6.120;2023-08-08T15:17:37;18.20;99.90
12911;DHT22;6523;49.758;6.120;2023-08-08T15:20:02;18.20;99.90
12911;DHT22;6523;49.758;6.120;2023-08-08T15:22:28;18.20;99.90
12911;DHT22;6523;49.758;6.120;2023-08-08T15:24:54;18.10;99.90
12911;DHT22;6523;49.758;6.120;2023-08-08T15:27:19;18.10;99.90
12911;DHT22;6523;49.758;6.120;2023-08-08T15:29:45;18.20;99.90
12911;DHT22;6523;49.758;6.120;2023-08-08T15:32:10;18.10;99.90
12911;DHT22;6523;49.758;6.120;2023-08-08T15:34:36;17.90;99.90
12911;DHT22;6523;49.758;6.120;2023-08-08T15:37:02;17.80;99.90
12911;DHT22;6523;49.758;6.120;2023-08-08T15:39:28;17.80;99.90
12911;DHT22;6523;49.758;6.120;2023-08-08T15:41:53;17.60;99.90
12911;DHT22;6523;49.758;6.120;2023-08-08T15:44:19;17.50;99.90
12911;DHT22;6523;49.758;6.120;2023-08-08T15:46:44;17.40;99.90
12911;DHT22;6523;49.758;6.120;2023-08-08T15:49:10;17.30;99.90